KCUB/CUB METAR and TAF weather

Enter ICAO airport designator
Station Type Date Time Source
KCUB METAR 2021/04/17 02:53 UTC NOAA

KCUB 170253Z AUTO 00000KT 10SM CLR 15/07 A2986 RMK AO2 SLP109 T01500072 50002


Station Type Date Time Source
KCUB Decoded METAR 2021/04/17 02:53 UTC NOAA

OWENS DOWNTOWN AIRPORT, SC, United States (KCUB) 33-58N 081-00W 56M
Apr 16, 2021 - 10:53 PM EDT / 2021.04.17 0253 UTC
Wind: Calm:0
Visibility: 10 mile(s):0
Sky conditions: clear
Temperature: 59.0 F (15.0 C)
Dew Point: 45.0 F (7.2 C)
Relative Humidity: 59%
Pressure (altimeter): 29.86 in. Hg (1011 hPa)
Pressure tendency: 0.01 inches (0.2 hPa) higher than three hours ago
ob: KCUB 170253Z AUTO 00000KT 10SM CLR 15/07 A2986 RMK AO2 SLP109 T01500072 50002
cycle: 3

Station Type Date Time Source
KCUB TAF 2021/04/17 03:42 UTC NOAA

TAF
AMD KCUB 170239Z 1703/1724 00000KT P6SM BKN150
FM171800 23004KT P6SM BKN070

Example: see airport list